Currently 46°F in Anza, California, USA
46°F
59°F / 46°F
calm
0.00"
Monday, January 20, 2020 6:40 PM PST

Anza, California Weather Summary
Last 36 Hours

Temperature Winds Hourly Humidity Dewpoint
Time Report Norm Report Norm Max Gusts Precip. Rpt. Norm Rpt. Norm Pressure
1,3Mon 06:40 PM  45.8°F  47°F  calm  3 mph  none  0.00"  78%  63%  39°F  34°F  N/A
Mon 06:00 PM  47.5°F  48°F  calm  4 mph  none  0.00"  74%  61%  39°F  35°F  N/A
Mon 05:00 PM  49.3°F  52°F  calm  5 mph  none  0.00"  71%  55%  40°F  36°F  N/A
Mon 04:00 PM  51.6°F  55°F  calm  6 mph  none  0.00"  65%  49%  40°F  36°F  N/A
Mon 03:00 PM  57.1°F  57°F  calm  8 mph  none  0.00"  37%  46%  30°F  36°F  N/A
Mon 02:00 PM  56.9°F  58°F  calm  8 mph  none  0.00"  39%  45%  32°F  35°F  N/A
Mon 01:00 PM  57.1°F  57°F  calm  9 mph  none  0.00"  40%  45%  32°F  35°F  N/A
Mon 12:00 PM  58.4°F  57°F  calm  8 mph  none  0.00"  38%  45%  32°F  35°F  N/A
2Mon 11:38 AM  58.7°F  57°F  calm  8 mph  none  ----  37%  45%  31°F  35°F  N/A
Mon 11:00 AM  57.9°F  56°F  calm  8 mph  none  0.00"  36%  46%  30°F  35°F  N/A
Mon 10:00 AM  56.2°F  55°F  calm  8 mph  none  0.00"  40%  48%  31°F  35°F  N/A
Mon 09:00 AM  52.0°F  52°F  calm  6 mph  none  0.00"  53%  54%  35°F  35°F  N/A
Mon 08:00 AM  49.5°F  47°F  calm  4 mph  none  0.00"  56%  62%  34°F  34°F  N/A
Mon 07:00 AM  48.1°F  42°F  calm  3 mph  none  0.00"  51%  66%  30°F  31°F  N/A
Mon 06:00 AM  49.9°F  42°F  calm  3 mph  none  0.00"  47%  66%  30°F  31°F  N/A
Mon 05:00 AM  48.0°F  42°F  calm  4 mph  none  0.00"  50%  66%  29°F  31°F  N/A
Mon 04:00 AM  47.8°F  42°F  calm  4 mph  none  0.00"  52%  66%  31°F  32°F  N/A
Mon 03:00 AM  51.1°F  42°F  calm  3 mph  none  0.00"  42%  67%  28°F  32°F  N/A
Mon 02:00 AM  52.4°F  42°F  calm  3 mph  none  0.00"  40%  67%  27°F  32°F  N/A
Mon 01:00 AM  49.2°F  43°F  calm  3 mph  none  0.00"  47%  67%  29°F  32°F  N/A
Mon 12:00 AM  51.4°F  43°F  calm  3 mph  none  0.00"  41%  67%  28°F  32°F  N/A
Sun 11:00 PM  52.4°F  43°F  calm  3 mph  none  0.00"  40%  67%  28°F  32°F  N/A
Sun 10:00 PM  50.0°F  43°F  calm  3 mph  none  0.00"  46%  67%  29°F  33°F  N/A
Sun 09:00 PM  50.2°F  44°F  calm  3 mph  none  0.00"  45%  66%  29°F  33°F  N/A
Sun 08:00 PM  48.8°F  44°F  calm  3 mph  none  0.00"  49%  66%  30°F  33°F  N/A
Sun 07:00 PM  51.1°F  46°F  calm  3 mph  none  0.00"  44%  65%  29°F  34°F  N/A
Sun 06:00 PM  52.6°F  48°F  calm  4 mph  none  0.00"  42%  61%  29°F  35°F  N/A
Sun 05:00 PM  53.9°F  52°F  calm  5 mph  none  0.00"  40%  55%  29°F  36°F  N/A
Sun 04:00 PM  56.2°F  55°F  calm  6 mph  none  0.00"  37%  49%  29°F  36°F  N/A
Sun 03:00 PM  58.3°F  57°F  calm  8 mph  3 mph  0.00"  34%  46%  29°F  35°F  N/A
Sun 02:00 PM  59.8°F  57°F  calm  8 mph  14 mph  0.00"  30%  45%  27°F  35°F  N/A
Sun 01:00 PM  60.5°F  57°F  calm  9 mph  13 mph  0.00"  30%  45%  28°F  35°F  N/A
Sun 12:00 PM  59.6°F  57°F  2 mph SE  8 mph  11 mph  0.00"  31%  45%  27°F  35°F  N/A
Sun 11:00 AM  58.8°F  56°F  calm  8 mph  none  0.00"  31%  46%  27°F  35°F  N/A
Sun 10:00 AM  56.9°F  54°F  calm  8 mph  none  0.00"  31%  49%  26°F  35°F  N/A
Sun 09:00 AM  56.0°F  52°F  calm  6 mph  2 mph  0.00"  32%  55%  26°F  35°F  N/A
Sun 08:00 AM  55.5°F  47°F  calm  4 mph  none  0.00"  30%  62%  24°F  34°F  N/A
Sun 07:00 AM  52.2°F  42°F  calm  3 mph  none  0.00"  32%  67%  22°F  31°F  N/A

  1. Current weather data. No green row appears if the current weather data is also the high or low for the current day.
  2. High temperature for the current day.
  3. Low temperature for the current day.

The Anza, California weather pages are a service of WeatherCurrents. The Anza Valley is southwestern Riverside County, east of Temecula and Aguanga, south of Mount San Jacinto and west of Mount Santa Rosa.
Copyright ©2020  WeatherCurrents. All rights reserved. - Submit questions and comments - Privacy Policy

This page automatically refreshes every 10 minutes.